Time;durP1;ratioP1;P1;durP2;ratioP2;P2;SDS_P1;SDS_P2;PMS_P1;PMS_P2;Temp;Humidity;BMP_temperature;BMP_pressure;BME280_temperature;BME280_humidity;BME280_pressure;Samples;Min_cycle;Max_cycle;Signal;HPM_P1;HPM_P2
2022/08/12 00:44:09;;;;;;;8.30;2.13;;;21.40;32.60;;;;;;5035753;28;20388;-41
2022/08/12 00:46:46;;;;;;;3.07;2.23;;;21.50;31.90;;;;;;5035166;28;20915;-40
2022/08/12 00:49:12;;;;;;;3.80;2.00;;;21.40;31.90;;;;;;5035261;28;20439;-41
2022/08/12 00:54:23;;;;;;;6.20;3.73;;;21.40;32.00;;;;;;5035522;28;20458;-41
2022/08/12 00:56:52;;;;;;;7.27;2.10;;;21.40;31.90;;;;;;5034836;28;20492;-38
2022/08/12 00:59:18;;;;;;;4.70;2.60;;;21.40;32.10;;;;;;5035105;28;20401;-39
2022/08/12 01:01:46;;;;;;;4.70;2.33;;;21.40;32.10;;;;;;5034856;28;20392;-42
2022/08/12 01:12:40;;;;;;;3.47;2.53;;;21.30;32.10;;;;;;5035129;28;20431;-42
2022/08/12 01:15:06;;;;;;;4.70;2.30;;;21.20;32.10;;;;;;5034812;28;20409;-41
2022/08/12 01:17:33;;;;;;;3.80;2.70;;;21.20;32.50;;;;;;5034599;28;20412;-40
2022/08/12 01:20:04;;;;;;;4.30;2.63;;;21.20;32.20;;;;;;5034767;28;20492;-42
2022/08/12 01:22:44;;;;;;;3.07;2.03;;;21.20;32.20;;;;;;5034525;28;20499;-39
2022/08/12 01:25:17;;;;;;;4.80;2.72;;;21.20;32.20;;;;;;5034592;28;20479;-41
2022/08/12 01:27:45;;;;;;;4.20;2.60;;;21.20;32.40;;;;;;5034702;28;20162;-40
2022/08/12 01:30:13;;;;;;;4.03;2.30;;;21.10;33.20;;;;;;5034488;28;20405;-41
2022/08/12 01:32:40;;;;;;;3.15;2.20;;;21.00;32.60;;;;;;5036427;28;20439;-41
2022/08/12 01:35:12;;;;;;;3.43;2.40;;;21.00;32.70;;;;;;5036670;28;20613;-41
2022/08/12 01:38:04;;;;;;;3.05;2.40;;;20.90;33.00;;;;;;5037515;28;20401;-40
2022/08/12 01:40:33;;;;;;;6.53;2.33;;;20.90;33.10;;;;;;5036797;28;20257;-41
2022/08/12 01:43:12;;;;;;;2.90;1.90;;;20.80;33.00;;;;;;5035135;28;20526;-40
2022/08/12 01:46:05;;;;;;;4.67;3.57;;;20.80;33.10;;;;;;5034122;28;20420;-40
2022/08/12 01:48:59;;;;;;;3.50;2.60;;;20.80;33.30;;;;;;5033729;28;20459;-41
2022/08/12 01:51:41;;;;;;;3.92;2.17;;;20.80;33.20;;;;;;5034236;28;20466;-41
2022/08/12 01:54:13;;;;;;;3.57;2.20;;;20.80;33.30;;;;;;5034238;28;20239;-40
2022/08/12 01:57:04;;;;;;;3.95;2.88;;;20.60;33.40;;;;;;5033836;28;20404;-40
2022/08/12 01:59:59;;;;;;;3.35;2.38;;;20.60;33.30;;;;;;5034091;28;20166;-41
2022/08/12 02:02:28;;;;;;;2.83;1.95;;;20.60;33.40;;;;;;5033974;28;20665;-41
2022/08/12 02:11:21;;;;;;;4.85;2.83;;;20.50;33.90;;;;;;5033806;28;20180;-41
2022/08/12 02:14:31;;;;;;;4.70;2.40;;;20.40;34.00;;;;;;5033577;28;20196;-40
2022/08/12 02:17:04;;;;;;;4.47;2.75;;;20.30;33.90;;;;;;4953131;29;20656;-40
2022/08/12 02:20:00;;;;;;;3.85;2.55;;;20.30;33.70;;;;;;4953336;29;20273;-41
2022/08/12 02:22:27;;;;;;;3.25;2.75;;;20.30;34.10;;;;;;4953190;29;20200;-41
2022/08/12 02:25:02;;;;;;;3.85;3.20;;;20.20;34.00;;;;;;4953115;29;20176;-40
2022/08/12 02:27:36;;;;;;;3.65;2.40;;;20.20;34.00;;;;;;4952964;29;20185;-40
2022/08/12 02:30:03;;;;;;;3.22;2.28;;;20.20;33.80;;;;;;4953104;29;20183;-41
2022/08/12 02:32:34;;;;;;;3.42;2.33;;;20.20;34.00;;;;;;4952941;29;20205;-42
2022/08/12 02:35:01;;;;;;;4.47;2.80;;;20.20;34.00;;;;;;4952976;29;20336;-40
2022/08/12 02:37:30;;;;;;;8.27;3.05;;;20.20;34.20;;;;;;4952587;29;20689;-41
2022/08/12 02:39:58;;;;;;;3.78;2.92;;;20.10;34.10;;;;;;4952989;29;20176;-41
2022/08/12 02:42:27;;;;;;;4.32;2.65;;;20.10;34.00;;;;;;4952498;29;20224;-40
2022/08/12 02:44:55;;;;;;;3.95;2.65;;;20.10;34.00;;;;;;4952744;29;20296;-39
2022/08/12 02:47:23;;;;;;;3.70;2.60;;;20.10;34.00;;;;;;4980689;28;20174;-41
2022/08/12 02:52:19;;;;;;;6.00;3.63;;;20.10;33.80;;;;;;4991029;28;20227;-44
2022/08/12 02:54:51;;;;;;;3.47;3.17;;;20.10;33.70;;;;;;4993594;28;20163;-44
2022/08/12 02:57:19;;;;;;;7.93;3.22;;;20.10;33.70;;;;;;4993333;28;20669;-44
2022/08/12 02:59:47;;;;;;;3.40;1.90;;;20.00;33.70;;;;;;4993482;28;20184;-44
2022/08/12 03:02:18;;;;;;;3.85;3.28;;;20.00;34.00;;;;;;4973906;28;20671;-45
2022/08/12 03:04:55;;;;;;;4.63;3.20;;;20.00;34.00;;;;;;4974077;28;20219;-44
2022/08/12 03:07:25;;;;;;;4.50;2.95;;;19.90;34.00;;;;;;4973839;28;20616;-44
2022/08/12 03:10:11;;;;;;;3.92;3.13;;;19.90;34.00;;;;;;4973794;28;20651;-44
2022/08/12 03:12:43;;;;;;;5.50;2.97;;;19.80;34.20;;;;;;4973770;28;20259;-44
2022/08/12 03:15:14;;;;;;;4.88;2.95;;;19.80;34.00;;;;;;4973985;28;20187;-44
2022/08/12 03:17:50;;;;;;;4.00;3.22;;;19.70;34.50;;;;;;4973823;28;20539;-44
2022/08/12 03:20:19;;;;;;;4.65;3.33;;;19.70;34.40;;;;;;4973660;28;20191;-42
2022/08/12 03:22:46;;;;;;;3.47;2.88;;;19.60;34.50;;;;;;4973540;28;20567;-42
2022/08/12 03:25:26;;;;;;;6.45;3.88;;;19.60;34.50;;;;;;4973589;28;20175;-42
2022/08/12 03:27:57;;;;;;;4.40;2.95;;;19.50;34.50;;;;;;4973431;28;20247;-42
2022/08/12 03:30:30;;;;;;;4.80;2.65;;;19.60;34.40;;;;;;4973681;28;20200;-42
2022/08/12 03:32:57;;;;;;;3.42;2.40;;;19.60;34.50;;;;;;4973532;28;20186;-43
2022/08/12 03:35:27;;;;;;;4.43;2.28;;;19.60;34.50;;;;;;4973492;28;20180;-43
2022/08/12 03:37:58;;;;;;;4.03;2.58;;;19.60;34.70;;;;;;4973201;28;20210;-42
2022/08/12 04:02:45;;;;;;;3.90;2.58;;;19.50;35.30;;;;;;4972519;28;20202;-42
2022/08/12 04:05:12;;;;;;;4.10;2.30;;;19.40;35.50;;;;;;4973161;28;20184;-43
2022/08/12 04:07:39;;;;;;;2.88;2.42;;;19.50;35.60;;;;;;4973024;28;20176;-42
2022/08/12 04:10:06;;;;;;;9.93;2.58;;;19.50;35.50;;;;;;4973046;28;20583;-42
2022/08/12 04:15:18;;;;;;;2.80;2.17;;;19.50;35.60;;;;;;4973395;28;20580;-42
2022/08/12 04:17:46;;;;;;;4.20;3.03;;;19.50;35.50;;;;;;4972924;28;20266;-41
2022/08/12 04:20:18;;;;;;;7.60;2.40;;;19.50;35.50;;;;;;4973259;28;20291;-40
2022/08/12 04:22:45;;;;;;;4.80;3.10;;;19.40;35.70;;;;;;4972995;28;20207;-44
2022/08/12 04:25:11;;;;;;;4.05;2.58;;;19.40;35.40;;;;;;4972989;28;20229;-44
2022/08/12 04:27:38;;;;;;;4.65;2.42;;;19.50;35.40;;;;;;4972815;28;20175;-42
2022/08/12 04:30:06;;;;;;;6.47;2.60;;;19.50;35.80;;;;;;4972704;28;20640;-41
2022/08/12 04:32:34;;;;;;;8.40;3.17;;;19.40;35.90;;;;;;4972908;28;20219;-43
2022/08/12 04:35:00;;;;;;;13.00;3.33;;;19.40;35.70;;;;;;4972950;28;20171;-42
2022/08/12 04:37:26;;;;;;;3.87;2.17;;;19.50;36.40;;;;;;4972771;28;20207;-42
2022/08/12 04:39:53;;;;;;;11.77;2.33;;;19.50;35.90;;;;;;4972910;28;20791;-41
2022/08/12 04:42:19;;;;;;;3.58;2.75;;;19.60;35.70;;;;;;4972646;28;20203;-42
2022/08/12 04:44:45;;;;;;;5.43;2.83;;;19.60;35.60;;;;;;4972875;28;20164;-42
2022/08/12 04:47:13;;;;;;;8.23;2.93;;;19.60;35.70;;;;;;4972721;28;20655;-42
2022/08/12 04:49:42;;;;;;;5.60;2.80;;;19.80;35.70;;;;;;4972607;28;20930;-43
2022/08/12 04:52:08;;;;;;;5.15;2.17;;;19.80;35.80;;;;;;4972473;28;20306;-43
2022/08/12 04:54:35;;;;;;;12.00;3.40;;;19.80;35.80;;;;;;4972689;28;20168;-41
2022/08/12 04:57:01;;;;;;;4.85;3.40;;;19.90;35.80;;;;;;4972329;28;20654;-42
2022/08/12 04:59:26;;;;;;;4.80;3.08;;;20.00;35.70;;;;;;4972682;28;20168;-43
2022/08/12 05:01:52;;;;;;;4.70;2.63;;;20.10;35.70;;;;;;4972690;28;20192;-43
2022/08/12 05:04:20;;;;;;;4.70;2.90;;;20.10;35.70;;;;;;4972865;28;20635;-43
2022/08/12 05:06:47;;;;;;;7.32;3.15;;;20.20;35.50;;;;;;4972663;28;20180;-42
2022/08/12 05:09:14;;;;;;;6.10;2.45;;;20.30;35.60;;;;;;4972726;28;20176;-43
2022/08/12 05:11:40;;;;;;;4.63;2.53;;;20.30;35.60;;;;;;4972404;28;20234;-43
2022/08/12 05:14:07;;;;;;;5.25;2.72;;;20.40;35.30;;;;;;4973962;28;20256;-41
2022/08/12 05:16:36;;;;;;;5.40;2.50;;;20.50;35.40;;;;;;4975762;28;20172;-42
2022/08/12 05:19:02;;;;;;;4.50;2.40;;;20.60;35.30;;;;;;4975998;28;20203;-42
2022/08/12 05:21:28;;;;;;;10.10;2.60;;;20.70;35.30;;;;;;4975806;28;20764;-43
2022/08/12 05:23:54;;;;;;;5.43;2.30;;;20.80;35.00;;;;;;4975838;28;20295;-42
2022/08/12 05:26:20;;;;;;;3.40;2.70;;;20.90;35.60;;;;;;4975454;28;20172;-42
2022/08/12 05:28:46;;;;;;;5.22;2.80;;;21.00;35.00;;;;;;4975847;28;20176;-43
2022/08/12 05:31:13;;;;;;;4.10;2.60;;;21.10;34.90;;;;;;4975705;28;20628;-43
2022/08/12 05:33:39;;;;;;;4.65;2.83;;;21.20;35.00;;;;;;4975471;28;20180;-43
2022/08/12 05:36:08;;;;;;;4.50;3.38;;;21.20;34.80;;;;;;4975450;28;20176;-42
2022/08/12 05:41:19;;;;;;;7.95;2.47;;;21.40;34.70;;;;;;4975778;28;20207;-43
2022/08/12 05:43:51;;;;;;;3.60;2.72;;;21.40;34.40;;;;;;4975555;28;20291;-42
2022/08/12 05:46:17;;;;;;;4.18;2.85;;;21.50;34.40;;;;;;4975218;28;20180;-41
2022/08/12 05:48:43;;;;;;;4.97;3.80;;;21.50;34.40;;;;;;4975439;28;20184;-41
2022/08/12 05:51:10;;;;;;;4.87;3.17;;;21.50;34.00;;;;;;4975102;28;20216;-41
2022/08/12 05:53:39;;;;;;;5.53;2.65;;;21.50;34.40;;;;;;4975508;28;20180;-41
2022/08/12 05:56:16;;;;;;;3.10;2.35;;;21.70;34.40;;;;;;4975091;28;20173;-42
2022/08/12 05:58:42;;;;;;;4.10;2.47;;;21.80;34.40;;;;;;4975231;28;20168;-41
2022/08/12 06:01:08;;;;;;;3.47;2.50;;;21.90;34.40;;;;;;4975128;28;20206;-41
2022/08/12 06:03:34;;;;;;;4.60;3.13;;;22.00;34.10;;;;;;4975376;28;20659;-42
2022/08/12 06:05:59;;;;;;;3.70;2.53;;;22.10;34.00;;;;;;4974769;28;20262;-41
2022/08/12 06:08:25;;;;;;;5.67;3.07;;;22.20;33.80;;;;;;4974968;28;20176;-42
2022/08/12 06:10:52;;;;;;;7.47;3.72;;;22.30;33.70;;;;;;4975175;28;20247;-41
2022/08/12 06:13:18;;;;;;;4.30;3.03;;;22.30;33.60;;;;;;4975208;28;20585;-42
2022/08/12 06:15:44;;;;;;;5.87;3.00;;;22.30;33.60;;;;;;4975041;28;20517;-41
2022/08/12 06:18:11;;;;;;;7.43;2.83;;;22.40;33.50;;;;;;4974996;28;20418;-41
2022/08/12 06:20:37;;;;;;;5.90;3.57;;;22.50;33.30;;;;;;4974763;28;20296;-41
2022/08/12 06:23:04;;;;;;;7.47;2.63;;;22.50;33.60;;;;;;4974642;28;20454;-42
2022/08/12 06:25:30;;;;;;;3.60;3.10;;;22.70;33.60;;;;;;4974087;28;20768;-41
2022/08/12 06:27:58;;;;;;;4.80;3.00;;;22.70;32.90;;;;;;4974547;28;20411;-41
2022/08/12 06:30:28;;;;;;;6.70;2.90;;;22.60;32.50;;;;;;4974625;28;20435;-41
2022/08/12 06:32:55;;;;;;;3.93;2.53;;;22.60;32.50;;;;;;4974494;28;20419;-41
2022/08/12 06:35:20;;;;;;;6.30;3.30;;;22.70;32.90;;;;;;4974745;28;20410;-41
2022/08/12 06:37:49;;;;;;;3.33;2.40;;;22.70;32.90;;;;;;4974506;28;20411;-41
2022/08/12 06:42:46;;;;;;;4.57;3.13;;;22.80;32.70;;;;;;4974608;28;20514;-41
2022/08/12 06:43:04;;;;;;;4.37;2.47;;;22.80;32.40;;;;;;4974067;28;20544;-42
2022/08/12 06:45:31;;;;;;;4.43;2.43;;;22.90;32.50;;;;;;4974330;28;20454;-43
2022/08/12 06:48:02;;;;;;;7.20;2.73;;;22.90;32.50;;;;;;4974167;28;20922;-41
2022/08/12 06:50:29;;;;;;;4.13;2.70;;;23.00;32.20;;;;;;4974060;28;20947;-41
2022/08/12 06:52:55;;;;;;;6.30;2.70;;;23.00;32.30;;;;;;4974131;28;20420;-41
2022/08/12 06:55:24;;;;;;;5.20;2.53;;;23.10;32.20;;;;;;4974403;28;20418;-41
2022/08/12 06:57:55;;;;;;;5.13;3.23;;;23.20;32.40;;;;;;4974114;28;20184;-41
2022/08/12 07:00:24;;;;;;;5.13;2.40;;;23.30;32.20;;;;;;4973973;28;20795;-42
2022/08/12 07:02:51;;;;;;;3.90;2.10;;;23.40;32.20;;;;;;4974168;28;20546;-42
2022/08/12 07:05:23;;;;;;;4.23;2.77;;;23.50;32.60;;;;;;4973917;28;20411;-42
2022/08/12 07:08:12;;;;;;;3.67;2.37;;;23.70;32.90;;;;;;4973719;28;20427;-41
2022/08/12 07:10:41;;;;;;;3.50;2.60;;;23.90;32.90;;;;;;4974064;28;20433;-41
2022/08/12 07:13:08;;;;;;;2.83;2.00;;;23.90;32.70;;;;;;4973717;28;20498;-41
2022/08/12 07:15:34;;;;;;;4.07;2.30;;;23.90;32.40;;;;;;4973774;28;20504;-41
2022/08/12 07:18:16;;;;;;;4.57;2.47;;;23.90;32.30;;;;;;4973722;28;20422;-41
2022/08/12 07:20:44;;;;;;;3.60;2.43;;;23.90;32.80;;;;;;4973638;28;20855;-41
2022/08/12 07:23:10;;;;;;;4.50;3.17;;;23.90;32.80;;;;;;4973838;28;20947;-41
2022/08/12 07:25:38;;;;;;;4.87;2.70;;;23.90;32.70;;;;;;4973462;28;20407;-41
2022/08/12 07:28:07;;;;;;;4.80;2.50;;;23.90;32.60;;;;;;4973683;28;20427;-42
2022/08/12 07:30:36;;;;;;;3.33;2.60;;;23.90;32.50;;;;;;4973496;28;20434;-41
2022/08/12 07:33:03;;;;;;;6.03;2.80;;;24.00;32.50;;;;;;4956554;28;20749;-41
2022/08/12 07:35:33;;;;;;;8.40;2.53;;;24.00;32.50;;;;;;4973436;28;20411;-41
2022/08/12 07:38:00;;;;;;;4.53;2.73;;;24.00;32.50;;;;;;4973330;28;20445;-41
2022/08/12 07:40:28;;;;;;;6.00;3.60;;;24.00;32.40;;;;;;4973303;28;20443;-41
2022/08/12 07:42:55;;;;;;;3.90;2.33;;;24.10;32.30;;;;;;4973556;28;20455;-41
2022/08/12 07:45:21;;;;;;;3.33;2.17;;;24.10;32.10;;;;;;4973309;28;20432;-41
2022/08/12 07:47:49;;;;;;;4.20;2.73;;;24.10;31.70;;;;;;4973014;28;20419;-42
2022/08/12 07:50:24;;;;;;;4.43;2.40;;;24.10;31.80;;;;;;4973318;28;21145;-41
2022/08/12 07:52:52;;;;;;;4.07;2.37;;;24.20;31.90;;;;;;4972672;28;20438;-41
2022/08/12 07:55:18;;;;;;;4.73;3.23;;;24.30;32.00;;;;;;4973462;28;20411;-41
2022/08/12 07:57:49;;;;;;;5.77;3.00;;;24.50;32.10;;;;;;4972994;28;20717;-41
2022/08/12 08:00:15;;;;;;;3.30;2.40;;;24.50;31.70;;;;;;4973355;28;20196;-41
2022/08/12 08:02:41;;;;;;;4.07;2.27;;;24.60;32.20;;;;;;4973287;28;20757;-41
2022/08/12 08:05:07;;;;;;;4.93;2.70;;;24.80;31.80;;;;;;4973323;28;20422;-41
2022/08/12 08:07:33;;;;;;;3.90;2.47;;;24.90;31.60;;;;;;4972926;28;20667;-41
2022/08/12 08:10:02;;;;;;;2.80;2.27;;;25.10;31.20;;;;;;4972972;28;20450;-41
2022/08/12 08:15:14;;;;;;;4.10;3.70;;;25.50;31.20;;;;;;4973348;28;20486;-41
2022/08/12 08:17:56;;;;;;;3.00;2.13;;;25.70;31.10;;;;;;4972933;28;20407;-41
2022/08/12 08:20:27;;;;;;;5.43;2.50;;;25.90;30.40;;;;;;4972935;28;21005;-41
2022/08/12 08:22:54;;;;;;;3.33;1.83;;;26.00;30.70;;;;;;4972851;28;20439;-41
2022/08/12 08:25:20;;;;;;;3.53;2.23;;;26.10;30.30;;;;;;4973104;28;20474;-41
2022/08/12 08:27:46;;;;;;;5.93;2.70;;;26.20;30.70;;;;;;4973073;28;20498;-41
2022/08/12 08:30:13;;;;;;;3.97;2.10;;;26.30;30.30;;;;;;4973092;28;20506;-41
2022/08/12 08:32:39;;;;;;;3.13;1.70;;;26.40;30.00;;;;;;4973259;28;20439;-42
2022/08/12 08:35:09;;;;;;;5.83;2.03;;;26.60;30.00;;;;;;4973023;28;20438;-41
2022/08/12 08:37:35;;;;;;;3.53;1.47;;;26.70;29.90;;;;;;4972710;28;20403;-42
2022/08/12 08:42:35;;;;;;;3.40;2.20;;;26.80;28.70;;;;;;4972797;28;20415;-42
2022/08/12 08:42:50;;;;;;;3.90;2.10;;;27.00;29.60;;;;;;4972656;28;20458;-40
2022/08/12 08:45:16;;;;;;;2.30;1.63;;;27.10;28.90;;;;;;4972960;28;20805;-41
2022/08/12 08:47:46;;;;;;;2.63;2.10;;;27.30;29.70;;;;;;4972747;28;20461;-41
2022/08/12 08:50:14;;;;;;;2.97;1.70;;;27.50;28.30;;;;;;4975856;28;20435;-42
2022/08/12 08:52:43;;;;;;;2.67;1.87;;;27.50;27.90;;;;;;4976493;28;20811;-41
2022/08/12 08:55:10;;;;;;;6.63;2.00;;;27.70;27.50;;;;;;4976453;28;20418;-41
2022/08/12 08:57:39;;;;;;;3.70;1.90;;;27.80;28.10;;;;;;4976500;28;20422;-41
2022/08/12 09:00:06;;;;;;;3.70;2.40;;;27.80;27.70;;;;;;4976261;28;20783;-44
2022/08/12 09:02:32;;;;;;;3.23;1.83;;;27.90;27.80;;;;;;4976495;28;20447;-43
2022/08/12 09:04:58;;;;;;;3.13;1.70;;;27.90;27.80;;;;;;4976185;28;20408;-42
2022/08/12 09:07:26;;;;;;;3.30;2.10;;;28.00;28.30;;;;;;4975973;28;20415;-43
2022/08/12 09:09:54;;;;;;;2.47;1.40;;;28.00;28.40;;;;;;4976172;28;20168;-43
2022/08/12 09:15:06;;;;;;;5.47;1.90;;;28.10;27.60;;;;;;4976450;28;20411;-43
2022/08/12 09:17:33;;;;;;;2.73;1.47;;;28.00;27.00;;;;;;4975751;28;20466;-43
2022/08/12 09:19:59;;;;;;;2.33;1.57;;;28.00;27.30;;;;;;4975937;28;20439;-44
2022/08/12 09:22:25;;;;;;;2.20;1.43;;;28.10;28.10;;;;;;4976019;28;20455;-43
2022/08/12 09:24:51;;;;;;;2.33;1.33;;;28.30;27.70;;;;;;4975896;28;20918;-42
2022/08/12 09:27:17;;;;;;;2.60;1.50;;;28.50;27.90;;;;;;4975645;28;20176;-43
2022/08/12 09:29:44;;;;;;;4.23;1.63;;;28.70;27.50;;;;;;4975935;28;20413;-43
2022/08/12 09:32:12;;;;;;;2.40;1.43;;;28.90;27.80;;;;;;4975618;28;20431;-43
2022/08/12 09:34:38;;;;;;;2.47;1.37;;;29.00;27.10;;;;;;4975982;28;20485;-44
2022/08/12 09:37:04;;;;;;;4.20;2.03;;;29.10;27.20;;;;;;4975746;28;20499;-43
2022/08/12 09:39:30;;;;;;;3.13;1.20;;;29.40;27.00;;;;;;4975586;28;20487;-42
2022/08/12 09:47:27;;;;;;;2.00;1.47;;;29.60;26.50;;;;;;4975403;28;20489;-44
2022/08/12 09:49:54;;;;;;;1.83;1.10;;;29.60;26.20;;;;;;4975406;28;20895;-43
2022/08/12 09:52:21;;;;;;;2.60;1.70;;;29.50;26.50;;;;;;4975704;28;20765;-44
2022/08/12 09:54:47;;;;;;;1.90;1.03;;;29.50;26.00;;;;;;4975302;28;20440;-43
2022/08/12 09:57:21;;;;;;;2.50;1.73;;;29.50;26.40;;;;;;5015088;23;20532;-42
2022/08/12 09:59:47;;;;;;;3.13;2.10;;;29.50;26.80;;;;;;5013337;28;20518;-41
2022/08/12 10:02:15;;;;;;;2.43;1.30;;;29.60;26.70;;;;;;5013914;28;20405;-42
2022/08/12 10:04:47;;;;;;;2.60;1.60;;;29.70;26.40;;;;;;5014378;28;20404;-41
2022/08/12 10:07:16;;;;;;;3.00;1.47;;;29.90;26.10;;;;;;4999480;28;20505;-40
2022/08/12 10:09:42;;;;;;;3.50;1.30;;;29.90;26.40;;;;;;4994613;28;20407;-42
2022/08/12 10:14:51;;;;;;;2.43;1.67;;;30.10;26.30;;;;;;4994596;28;20214;-40
2022/08/12 10:17:21;;;;;;;2.30;1.30;;;30.00;25.20;;;;;;4994064;28;20426;-42
2022/08/12 10:19:47;;;;;;;2.57;1.70;;;29.90;25.50;;;;;;4994410;28;20195;-41
2022/08/12 10:22:14;;;;;;;2.43;1.40;;;29.90;25.70;;;;;;4994090;28;20557;-42
2022/08/12 10:24:40;;;;;;;2.33;1.40;;;30.10;25.90;;;;;;4994280;28;20498;-42
2022/08/12 10:29:51;;;;;;;2.07;1.40;;;30.20;24.90;;;;;;4994327;28;20167;-41
2022/08/12 10:32:22;;;;;;;2.93;1.80;;;30.10;24.90;;;;;;4994105;28;20465;-40
2022/08/12 10:34:49;;;;;;;2.30;1.30;;;30.00;24.10;;;;;;4994101;28;20405;-41
2022/08/12 10:37:17;;;;;;;2.00;1.03;;;30.00;25.00;;;;;;4993733;28;20441;-40
2022/08/12 10:39:44;;;;;;;2.47;1.90;;;30.00;25.20;;;;;;4994098;28;20405;-41
2022/08/12 10:45:04;;;;;;;2.77;1.60;;;30.20;25.20;;;;;;4994224;28;20409;-41
2022/08/12 10:47:31;;;;;;;2.50;1.70;;;30.20;25.30;;;;;;4993913;28;20841;-40
2022/08/12 10:49:58;;;;;;;2.83;1.47;;;30.20;25.30;;;;;;4993756;28;20406;-41
2022/08/12 10:52:25;;;;;;;4.37;1.77;;;30.20;25.20;;;;;;4993722;28;20411;-41
2022/08/12 10:54:54;;;;;;;2.67;1.53;;;30.10;24.30;;;;;;4993829;28;20429;-40
2022/08/12 10:57:22;;;;;;;3.20;1.83;;;29.90;23.70;;;;;;4993101;28;20512;-42
2022/08/12 10:59:48;;;;;;;2.10;1.60;;;29.90;24.10;;;;;;4993613;28;20516;-41
2022/08/12 11:02:14;;;;;;;2.77;1.90;;;29.80;24.60;;;;;;4993421;28;20407;-42
2022/08/12 11:04:41;;;;;;;5.60;2.57;;;29.80;24.10;;;;;;4993560;28;20407;-42
2022/08/12 11:07:08;;;;;;;8.17;1.80;;;29.80;25.00;;;;;;4993293;28;20504;-41
2022/08/12 11:09:37;;;;;;;4.33;2.27;;;29.90;25.20;;;;;;4993687;28;20764;-41
2022/08/12 11:12:05;;;;;;;2.60;1.37;;;30.00;25.00;;;;;;4992995;28;20744;-41
2022/08/12 11:14:37;;;;;;;2.57;1.50;;;30.10;25.40;;;;;;4993743;28;20417;-42
2022/08/12 11:17:07;;;;;;;3.30;1.93;;;30.10;24.40;;;;;;4992930;28;20942;-40
2022/08/12 11:19:35;;;;;;;2.60;1.80;;;30.10;24.50;;;;;;4993320;28;20398;-41
2022/08/12 11:22:02;;;;;;;2.67;1.90;;;30.20;24.70;;;;;;4993201;28;20446;-42
2022/08/12 11:24:29;;;;;;;2.53;1.60;;;30.30;24.70;;;;;;4993188;28;20453;-42
2022/08/12 11:26:56;;;;;;;2.90;1.63;;;30.30;24.70;;;;;;4992805;28;20432;-41
2022/08/12 11:29:24;;;;;;;4.63;2.20;;;30.40;25.00;;;;;;4993068;28;20403;-42
2022/08/12 11:31:51;;;;;;;2.50;1.70;;;30.50;24.60;;;;;;4993086;28;20416;-40
2022/08/12 11:34:17;;;;;;;4.30;2.27;;;30.50;24.50;;;;;;4992967;28;20410;-42
2022/08/12 11:36:50;;;;;;;2.27;1.40;;;30.60;24.70;;;;;;4992670;28;20501;-39
2022/08/12 11:39:17;;;;;;;2.70;1.83;;;30.60;24.60;;;;;;4993009;28;20411;-41
2022/08/12 11:41:43;;;;;;;2.40;1.20;;;30.60;24.30;;;;;;4992997;28;20418;-40
2022/08/12 11:44:09;;;;;;;3.23;1.50;;;30.50;24.50;;;;;;4992763;28;20806;-42
2022/08/12 11:46:36;;;;;;;4.20;1.70;;;30.60;24.70;;;;;;4992608;28;20745;-41
2022/08/12 11:49:03;;;;;;;2.40;1.60;;;30.70;24.40;;;;;;4992944;28;20413;-42
2022/08/12 11:51:29;;;;;;;2.57;1.30;;;30.90;24.20;;;;;;4992835;28;20460;-41
2022/08/12 11:53:55;;;;;;;5.13;1.30;;;31.20;24.00;;;;;;4992766;28;20406;-41
2022/08/12 11:56:21;;;;;;;5.20;1.50;;;31.30;24.20;;;;;;4992435;28;20502;-41
2022/08/12 11:58:47;;;;;;;2.20;1.60;;;31.40;23.60;;;;;;4992777;28;20236;-42
2022/08/12 12:01:13;;;;;;;2.50;1.43;;;31.40;23.50;;;;;;4992740;28;20167;-42
2022/08/12 12:03:40;;;;;;;3.33;1.50;;;31.30;22.60;;;;;;4992575;28;20992;-42
2022/08/12 12:06:06;;;;;;;3.23;1.37;;;31.10;22.50;;;;;;4992395;28;20519;-41
2022/08/12 12:08:32;;;;;;;2.70;1.70;;;31.10;22.80;;;;;;4992877;28;20410;-42
2022/08/12 12:10:58;;;;;;;3.03;1.40;;;31.30;22.90;;;;;;4992577;28;20415;-41
2022/08/12 12:13:24;;;;;;;3.13;2.03;;;31.40;22.30;;;;;;4992641;28;20329;-40
2022/08/12 12:15:50;;;;;;;2.03;1.50;;;31.40;21.60;;;;;;4992324;28;20945;-41
2022/08/12 12:18:27;;;;;;;2.13;1.23;;;31.20;22.10;;;;;;4992551;28;20409;-42
2022/08/12 12:20:59;;;;;;;3.70;1.50;;;31.10;22.30;;;;;;4975091;28;20168;-42
2022/08/12 12:23:25;;;;;;;2.67;1.20;;;31.10;23.40;;;;;;4992824;28;20520;-42
2022/08/12 12:25:51;;;;;;;3.57;1.93;;;31.30;23.20;;;;;;4996105;28;20448;-42
2022/08/12 12:28:18;;;;;;;3.20;1.57;;;31.50;23.50;;;;;;4996419;28;20410;-42
2022/08/12 12:30:43;;;;;;;2.30;1.30;;;31.70;23.20;;;;;;4996384;28;20394;-42
2022/08/12 12:33:11;;;;;;;3.00;1.77;;;31.90;23.00;;;;;;4996298;28;20421;-42
2022/08/12 12:35:37;;;;;;;2.60;1.80;;;32.20;22.60;;;;;;4995985;28;20406;-41
2022/08/12 12:38:08;;;;;;;2.20;1.37;;;32.30;21.60;;;;;;4978714;28;20495;-40
2022/08/12 12:40:37;;;;;;;1.90;1.07;;;32.40;22.00;;;;;;4996810;28;20395;-42
2022/08/12 12:43:04;;;;;;;3.30;1.27;;;32.40;21.40;;;;;;4998788;28;20458;-41
2022/08/12 12:45:31;;;;;;;2.23;1.47;;;32.40;21.30;;;;;;4995968;28;20489;-45
2022/08/12 12:48:05;;;;;;;2.23;1.47;;;32.40;20.80;;;;;;4997624;28;20410;-41
2022/08/12 12:50:42;;;;;;;2.90;1.53;;;32.30;21.30;;;;;;4998801;28;20395;-41
2022/08/12 12:53:11;;;;;;;3.70;1.47;;;32.10;20.50;;;;;;4997503;28;20516;-42
2022/08/12 12:55:37;;;;;;;2.60;1.63;;;31.90;19.80;;;;;;4995396;28;20421;-41
2022/08/12 12:58:15;;;;;;;3.20;1.57;;;31.80;20.50;;;;;;4996454;28;20409;-42
2022/08/12 13:00:43;;;;;;;2.40;1.60;;;31.90;21.10;;;;;;4996461;28;20390;-43
2022/08/12 13:03:11;;;;;;;3.33;1.50;;;32.00;22.60;;;;;;4998004;28;20461;-42
2022/08/12 13:05:40;;;;;;;2.73;1.83;;;32.20;21.30;;;;;;4996582;28;20406;-41
2022/08/12 13:08:29;;;;;;;2.43;1.40;;;32.40;20.40;;;;;;4997239;28;20409;-42
2022/08/12 13:11:00;;;;;;;3.27;1.70;;;32.50;20.60;;;;;;4997031;28;20423;-42
2022/08/12 13:13:28;;;;;;;3.00;1.40;;;32.60;19.70;;;;;;4995599;28;20503;-41
2022/08/12 13:15:55;;;;;;;2.20;1.20;;;32.70;21.00;;;;;;4995347;28;20437;-41
2022/08/12 13:18:22;;;;;;;2.10;1.40;;;32.70;20.10;;;;;;4995317;28;20414;-42
2022/08/12 13:20:48;;;;;;;5.30;1.40;;;32.70;20.20;;;;;;4995450;28;20406;-42
2022/08/12 13:23:18;;;;;;;2.87;1.83;;;32.70;20.00;;;;;;4995397;28;20457;-40
2022/08/12 13:25:45;;;;;;;2.33;1.57;;;32.60;20.70;;;;;;4995318;28;21246;-40
2022/08/12 13:28:28;;;;;;;3.23;1.53;;;32.60;21.00;;;;;;4977754;28;20417;-41
2022/08/12 13:30:59;;;;;;;2.20;1.33;;;32.70;20.40;;;;;;4995334;28;20395;-40
2022/08/12 13:33:26;;;;;;;2.43;1.60;;;32.90;20.00;;;;;;4995296;28;20817;-43
2022/08/12 13:35:59;;;;;;;3.37;1.70;;;32.90;20.60;;;;;;4994648;28;20447;-40
2022/08/12 13:38:46;;;;;;;4.10;1.70;;;32.80;20.60;;;;;;4995196;28;20406;-41
2022/08/12 13:41:17;;;;;;;2.33;1.50;;;32.80;20.30;;;;;;4995199;28;20454;-40
2022/08/12 13:43:42;;;;;;;2.80;1.53;;;32.70;20.00;;;;;;4995123;28;20523;-41
2022/08/12 13:46:13;;;;;;;3.23;1.63;;;32.90;19.50;;;;;;4994717;28;20917;-41
2022/08/12 13:48:42;;;;;;;2.53;1.60;;;32.90;20.80;;;;;;4995023;28;20164;-41
2022/08/12 13:51:08;;;;;;;5.10;1.77;;;33.00;20.00;;;;;;4995281;28;20500;-42
2022/08/12 13:53:34;;;;;;;3.33;1.50;;;32.90;19.60;;;;;;4995091;28;20554;-42
2022/08/12 13:55:59;;;;;;;2.53;1.23;;;32.70;20.00;;;;;;4994506;28;20469;-42
2022/08/12 13:58:25;;;;;;;2.40;1.20;;;32.60;20.30;;;;;;4994823;28;20531;-42
2022/08/12 14:00:54;;;;;;;3.57;1.80;;;32.60;20.80;;;;;;4994756;28;20712;-41
2022/08/12 14:03:22;;;;;;;3.80;1.83;;;32.70;20.10;;;;;;4994611;28;20203;-42
2022/08/12 14:05:48;;;;;;;2.73;1.63;;;32.80;19.30;;;;;;4994268;28;20492;-42
2022/08/12 14:08:15;;;;;;;2.33;1.23;;;32.80;19.30;;;;;;4977187;28;20813;-40
2022/08/12 14:10:50;;;;;;;4.57;1.70;;;32.80;19.90;;;;;;4994595;28;20434;-40
2022/08/12 14:13:25;;;;;;;5.27;2.07;;;32.80;19.80;;;;;;4994541;28;20417;-43
2022/08/12 14:15:54;;;;;;;2.60;1.40;;;32.90;19.70;;;;;;4994208;28;20481;-41
2022/08/12 14:18:25;;;;;;;2.23;1.20;;;32.90;19.90;;;;;;4994543;28;20421;-41
2022/08/12 14:21:02;;;;;;;2.77;1.97;;;33.00;20.60;;;;;;4994663;28;20827;-41
2022/08/12 14:23:34;;;;;;;2.30;1.30;;;33.20;20.20;;;;;;4994192;28;20446;-42
2022/08/12 14:26:04;;;;;;;2.40;1.47;;;33.20;20.40;;;;;;4993953;28;20422;-43
2022/08/12 14:28:33;;;;;;;2.10;1.27;;;33.10;20.30;;;;;;4976634;28;20426;-41
2022/08/12 14:31:01;;;;;;;2.83;1.40;;;33.00;20.60;;;;;;4994211;28;20486;-42
2022/08/12 14:33:37;;;;;;;3.23;2.57;;;32.90;20.10;;;;;;4994125;28;20446;-42
2022/08/12 14:36:06;;;;;;;2.37;1.40;;;32.90;20.00;;;;;;4994158;28;20501;-42
2022/08/12 14:38:40;;;;;;;2.60;1.73;;;32.90;19.80;;;;;;4994111;28;21008;-42
2022/08/12 14:41:09;;;;;;;2.70;1.77;;;33.00;19.50;;;;;;4994225;28;20432;-41
2022/08/12 14:43:38;;;;;;;2.77;1.17;;;33.10;20.80;;;;;;4993889;28;20882;-42
2022/08/12 14:46:14;;;;;;;2.97;1.37;;;33.20;19.80;;;;;;4992843;28;20437;-42